createdAt,value
2018-06-30T00:01:42.417Z,80.32
2018-06-30T00:04:12.105Z,79.96
2018-06-30T00:06:41.719Z,79.46
2018-06-30T00:09:11.302Z,79.44
2018-06-30T00:11:40.701Z,79.54
2018-06-30T00:14:10.365Z,80.62
2018-06-30T00:16:39.878Z,79.86
2018-06-30T00:19:09.785Z,80.19
2018-06-30T00:21:39.135Z,80.11
2018-06-30T00:24:09.226Z,79.92
2018-06-30T00:26:39.062Z,80.36
2018-06-30T00:29:08.798Z,80.42
2018-06-30T00:31:38.530Z,79.98
2018-06-30T00:34:08.281Z,80.18
2018-06-30T00:36:38.051Z,80.79
2018-06-30T00:39:10.788Z,81.22
2018-06-30T00:41:40.497Z,80.92
2018-06-30T00:44:10.519Z,81.22
2018-06-30T00:46:40.340Z,81.34
2018-06-30T00:49:10.379Z,81.02
2018-06-30T00:51:40.134Z,80.50
2018-06-30T00:54:09.885Z,81.01
2018-06-30T00:56:39.647Z,80.09
2018-06-30T00:59:09.395Z,81.24
2018-06-30T01:01:39.160Z,80.81
2018-06-30T01:04:09.395Z,81.21
2018-06-30T01:06:39.162Z,81.34
2018-06-30T01:09:10.261Z,81.41
2018-06-30T01:11:39.938Z,81.11
2018-06-30T01:14:09.884Z,81.63
2018-06-30T01:16:39.785Z,80.90
2018-06-30T01:19:09.619Z,81.71
2018-06-30T01:21:39.792Z,81.87
2018-06-30T01:24:10.275Z,81.33
2018-06-30T01:26:39.968Z,81.49
2018-06-30T01:29:09.822Z,80.99
2018-06-30T01:31:39.606Z,81.16
2018-06-30T01:34:09.356Z,81.48
2018-06-30T01:36:39.079Z,81.67
2018-06-30T01:39:11.459Z,82.22
2018-06-30T01:41:42.124Z,82.40
2018-06-30T01:44:11.956Z,82.00
2018-06-30T01:46:41.661Z,82.44
2018-06-30T01:49:11.478Z,81.81
2018-06-30T01:51:41.113Z,82.65
2018-06-30T01:54:10.992Z,82.68
2018-06-30T01:56:40.658Z,82.76
2018-06-30T01:59:10.411Z,82.82
2018-06-30T02:01:40.115Z,82.58
2018-06-30T02:04:09.931Z,82.14
2018-06-30T02:06:39.808Z,82.39
2018-06-30T02:09:11.375Z,82.38
2018-06-30T02:11:41.639Z,82.92
2018-06-30T02:14:11.374Z,81.84
2018-06-30T02:16:41.237Z,82.70
2018-06-30T02:19:11.016Z,82.38
2018-06-30T02:21:40.773Z,83.00
2018-06-30T02:24:10.601Z,82.40
2018-06-30T02:26:40.440Z,82.42
2018-06-30T02:29:10.696Z,82.41
2018-06-30T02:31:40.444Z,83.25
2018-06-30T02:34:10.194Z,83.03
2018-06-30T02:36:39.994Z,83.12
2018-06-30T02:39:10.915Z,83.12
2018-06-30T02:41:40.601Z,83.16
2018-06-30T02:44:10.665Z,83.69
2018-06-30T02:46:40.269Z,82.98
2018-06-30T02:49:09.967Z,83.41
2018-06-30T02:51:39.628Z,82.59
2018-06-30T02:54:09.337Z,82.66
2018-06-30T02:56:38.994Z,82.47
2018-06-30T02:59:08.782Z,82.42
2018-06-30T03:01:38.393Z,82.89
2018-06-30T03:04:08.284Z,83.68
2018-06-30T03:06:38.020Z,84.27
2018-06-30T03:09:10.737Z,83.41
2018-06-30T03:11:41.076Z,83.39
2018-06-30T03:14:10.848Z,83.72
2018-06-30T03:16:40.494Z,82.78
2018-06-30T03:19:10.374Z,83.29
2018-06-30T03:21:40.165Z,82.57
2018-06-30T03:24:10.208Z,82.99
2018-06-30T03:26:39.954Z,83.64
2018-06-30T03:29:09.711Z,82.77
2018-06-30T03:31:39.450Z,83.38
2018-06-30T03:34:09.040Z,83.01
2018-06-30T03:36:38.683Z,83.50
2018-06-30T03:39:10.987Z,83.79
2018-06-30T03:41:40.785Z,82.94
2018-06-30T03:44:10.443Z,82.62
2018-06-30T03:46:39.947Z,82.14
2018-06-30T03:49:09.844Z,82.53
2018-06-30T03:51:39.560Z,82.95
2018-06-30T03:54:09.575Z,82.83
2018-06-30T03:56:39.637Z,83.13
2018-06-30T03:59:09.409Z,82.10
2018-06-30T04:01:39.001Z,81.63
2018-06-30T04:04:08.733Z,81.76
2018-06-30T04:06:38.391Z,82.69
2018-06-30T04:09:12.455Z,82.53
2018-06-30T04:11:42.100Z,82.59
2018-06-30T04:14:11.875Z,82.74
2018-06-30T04:16:41.560Z,83.05
2018-06-30T04:19:15.814Z,82.80
2018-06-30T04:21:47.837Z,83.32
2018-06-30T04:24:17.542Z,83.05
2018-06-30T04:26:47.343Z,82.46
2018-06-30T04:29:17.080Z,82.67
2018-06-30T04:31:46.772Z,82.22
2018-06-30T04:34:16.777Z,83.03
2018-06-30T04:36:46.480Z,81.40
2018-06-30T04:39:16.332Z,81.89
2018-06-30T04:41:58.432Z,81.75
2018-06-30T04:44:28.827Z,81.80
2018-06-30T04:46:58.824Z,81.81
2018-06-30T04:49:28.418Z,80.74
2018-06-30T04:51:57.838Z,80.68
2018-06-30T04:54:27.862Z,80.42
2018-06-30T04:56:57.537Z,80.63
2018-06-30T04:59:27.486Z,80.76
2018-06-30T05:01:57.280Z,81.33
2018-06-30T05:04:27.205Z,80.64
2018-06-30T05:06:56.936Z,81.09
2018-06-30T05:09:26.714Z,80.21
2018-06-30T05:11:56.457Z,80.51
2018-06-30T05:14:26.322Z,80.47
2018-06-30T05:16:56.560Z,80.55
2018-06-30T05:19:26.516Z,80.94
2018-06-30T05:21:56.235Z,79.90
2018-06-30T05:24:26.202Z,78.45
2018-06-30T05:26:55.984Z,77.67
2018-06-30T05:29:25.920Z,78.58
2018-06-30T05:31:55.575Z,78.39
2018-06-30T05:34:25.354Z,77.98
2018-06-30T05:36:55.073Z,77.33
2018-06-30T05:39:24.979Z,76.35
2018-06-30T05:41:54.686Z,75.38
2018-06-30T05:44:24.621Z,74.66
2018-06-30T05:46:54.402Z,74.17
2018-06-30T05:49:24.259Z,73.82
2018-06-30T05:51:54.419Z,72.94
2018-06-30T05:54:24.126Z,70.83
2018-06-30T05:56:53.818Z,69.85
2018-06-30T05:59:24.105Z,68.27
2018-06-30T06:01:54.761Z,67.74
2018-06-30T06:04:24.609Z,67.46
2018-06-30T06:06:54.628Z,66.12
2018-06-30T06:09:25.563Z,65.45
2018-06-30T06:11:55.487Z,63.65
2018-06-30T06:14:25.359Z,64.24
2018-06-30T06:16:55.118Z,63.61
2018-06-30T06:19:25.117Z,64.22
2018-06-30T06:21:54.875Z,64.97
2018-06-30T06:24:24.650Z,63.70
2018-06-30T06:26:54.887Z,63.28
2018-06-30T06:29:24.872Z,61.71
2018-06-30T06:31:54.598Z,63.34
2018-06-30T06:34:24.308Z,62.02
2018-06-30T06:36:54.228Z,60.18
2018-06-30T06:39:24.173Z,59.85
2018-06-30T06:41:54.859Z,58.34
2018-06-30T06:44:25.302Z,58.03
2018-06-30T06:46:55.400Z,59.49
2018-06-30T06:49:25.397Z,56.54
2018-06-30T06:51:55.210Z,57.96
2018-06-30T06:54:24.971Z,55.83
2018-06-30T06:56:54.657Z,56.79
2018-06-30T06:59:24.452Z,55.31
2018-06-30T07:01:54.198Z,55.23
2018-06-30T07:04:24.029Z,55.95
2018-06-30T07:06:54.035Z,56.42
2018-06-30T07:09:23.852Z,56.23
2018-06-30T07:11:54.104Z,55.10
2018-06-30T07:14:24.035Z,54.93
2018-06-30T07:16:53.852Z,55.44
2018-06-30T07:19:23.869Z,54.32
2018-06-30T07:21:53.632Z,54.64
2018-06-30T07:24:23.501Z,53.68
2018-06-30T07:26:53.388Z,54.69
2018-06-30T07:29:23.181Z,50.80
2018-06-30T07:31:52.915Z,49.11
2018-06-30T07:34:22.718Z,46.69
2018-06-30T07:36:52.541Z,49.35
2018-06-30T07:39:22.405Z,48.62
2018-06-30T07:41:52.273Z,50.17
2018-06-30T07:44:23.009Z,50.18
2018-06-30T07:46:52.770Z,51.27
2018-06-30T07:49:23.793Z,48.00
2018-06-30T07:51:53.655Z,45.69
2018-06-30T07:54:25.303Z,49.89
2018-06-30T07:56:55.154Z,45.52
2018-06-30T07:59:25.808Z,46.37
2018-06-30T08:01:55.745Z,46.34
2018-06-30T08:04:27.259Z,47.30
2018-06-30T08:06:57.352Z,49.57
2018-06-30T08:09:28.122Z,48.85
2018-06-30T08:11:58.045Z,49.26
2018-06-30T08:14:27.900Z,49.00
2018-06-30T08:16:58.001Z,50.15
2018-06-30T08:19:28.012Z,51.18
2018-06-30T08:21:58.426Z,49.73
2018-06-30T08:24:28.427Z,50.87
2018-06-30T08:26:58.268Z,48.18
2018-06-30T08:29:28.603Z,48.12
2018-06-30T08:31:58.739Z,49.93
2018-06-30T08:34:28.494Z,47.47
2018-06-30T08:36:58.939Z,47.78
2018-06-30T08:39:28.695Z,48.08
2018-06-30T08:41:58.552Z,48.76
2018-06-30T08:44:28.478Z,46.63
2018-06-30T08:46:58.453Z,47.23
2018-06-30T08:49:28.356Z,44.05
2018-06-30T08:51:58.365Z,46.77
2018-06-30T08:54:28.158Z,47.97
2018-06-30T08:56:58.028Z,48.30
2018-06-30T08:59:27.961Z,46.08
2018-06-30T09:01:57.764Z,45.24
2018-06-30T09:04:27.898Z,43.68
2018-06-30T09:06:57.860Z,43.54
2018-06-30T09:09:27.682Z,45.39
2018-06-30T09:11:57.772Z,42.27
2018-06-30T09:14:27.787Z,43.63
2018-06-30T09:16:57.888Z,44.11
2018-06-30T09:19:27.656Z,44.63
2018-06-30T09:21:57.523Z,43.06
2018-06-30T09:24:27.300Z,42.95
2018-06-30T09:26:57.233Z,45.14
2018-06-30T09:29:27.128Z,46.62
2018-06-30T09:31:57.406Z,49.55
2018-06-30T09:34:27.428Z,52.11
2018-06-30T09:36:57.610Z,53.03
2018-06-30T09:39:27.410Z,50.85
2018-06-30T09:41:57.389Z,56.59
2018-06-30T09:44:27.445Z,59.15
2018-06-30T09:46:57.496Z,61.63
2018-06-30T09:49:27.315Z,63.45
2018-06-30T09:51:57.498Z,61.46
2018-06-30T09:54:27.471Z,62.45
2018-06-30T09:56:57.325Z,65.43
2018-06-30T09:59:27.100Z,66.63
2018-06-30T10:01:57.138Z,70.34
2018-06-30T10:04:27.271Z,70.66
2018-06-30T10:06:57.371Z,69.57
2018-06-30T10:09:27.349Z,68.27
2018-06-30T10:11:57.463Z,70.61
2018-06-30T10:14:27.487Z,67.42
2018-06-30T10:16:57.585Z,67.07
2018-06-30T10:19:27.698Z,62.63
2018-06-30T10:21:57.750Z,60.96
2018-06-30T10:24:27.624Z,59.50
2018-06-30T10:26:57.647Z,61.31
2018-06-30T10:29:27.492Z,59.01
2018-06-30T10:31:57.351Z,59.47
2018-06-30T10:34:27.173Z,58.20
2018-06-30T10:36:57.221Z,59.79
2018-06-30T10:39:27.027Z,60.41
2018-06-30T10:41:56.867Z,64.29
2018-06-30T10:44:26.895Z,65.68
2018-06-30T10:46:57.271Z,66.86
2018-06-30T10:49:27.149Z,65.00
2018-06-30T10:51:57.396Z,65.49
2018-06-30T10:54:27.309Z,66.82
2018-06-30T10:56:57.401Z,68.51
2018-06-30T10:59:27.334Z,69.31
2018-06-30T11:01:57.408Z,69.56
2018-06-30T11:04:27.383Z,72.26
2018-06-30T11:06:57.385Z,72.61
2018-06-30T11:09:27.333Z,71.93
2018-06-30T11:11:57.532Z,67.53
2018-06-30T11:14:27.482Z,63.92
2018-06-30T11:16:57.528Z,66.74
2018-06-30T11:19:27.545Z,68.18
2018-06-30T11:21:58.116Z,70.64
2018-06-30T11:24:28.117Z,67.43
2018-06-30T11:26:58.220Z,67.72
2018-06-30T11:29:28.111Z,58.86
2018-06-30T11:31:58.362Z,58.90
2018-06-30T11:34:28.284Z,60.00
2018-06-30T11:36:58.347Z,60.19
2018-06-30T11:39:28.299Z,63.40
2018-06-30T11:41:58.359Z,58.92
2018-06-30T11:44:28.237Z,63.60
2018-06-30T11:46:58.191Z,61.95
2018-06-30T11:49:27.994Z,57.92
2018-06-30T11:51:57.795Z,57.06
2018-06-30T11:54:27.476Z,55.76
2018-06-30T11:56:57.273Z,53.28
2018-06-30T11:59:27.025Z,51.22
2018-06-30T12:01:56.866Z,48.88
2018-06-30T12:04:26.543Z,56.67
2018-06-30T12:06:56.393Z,49.23
2018-06-30T12:09:26.087Z,46.95
2018-06-30T12:11:55.961Z,47.31
2018-06-30T12:14:25.724Z,47.60
2018-06-30T12:16:55.641Z,50.19
2018-06-30T12:19:25.450Z,51.10
2018-06-30T12:21:55.556Z,51.51
2018-06-30T12:24:25.358Z,50.05
2018-06-30T12:26:55.375Z,53.16
2018-06-30T12:29:25.524Z,49.40
2018-06-30T12:31:55.502Z,53.62
2018-06-30T12:34:25.581Z,49.48
2018-06-30T12:36:55.631Z,49.13
2018-06-30T12:39:25.631Z,48.12
2018-06-30T12:41:55.588Z,47.54
2018-06-30T12:44:25.254Z,44.63
2018-06-30T12:46:55.350Z,46.27
2018-06-30T12:49:25.151Z,44.07
2018-06-30T12:51:55.256Z,45.97
2018-06-30T12:54:25.326Z,49.93
2018-06-30T12:56:55.400Z,42.59
2018-06-30T12:59:25.323Z,49.23
2018-06-30T13:01:55.238Z,47.71
2018-06-30T13:04:25.022Z,55.43
2018-06-30T13:06:54.999Z,55.38
2018-06-30T13:09:24.897Z,56.56
2018-06-30T13:11:54.870Z,56.82
2018-06-30T13:14:24.635Z,56.53
2018-06-30T13:16:54.600Z,58.92
2018-06-30T13:19:24.526Z,58.17
2018-06-30T13:21:54.641Z,60.03
2018-06-30T13:24:24.461Z,59.37
2018-06-30T13:26:54.511Z,57.93
2018-06-30T13:29:24.496Z,54.17
2018-06-30T13:31:54.849Z,55.30
2018-06-30T13:34:24.681Z,52.68
2018-06-30T13:36:54.703Z,53.27
2018-06-30T13:39:24.608Z,52.61
2018-06-30T13:41:54.527Z,52.64
2018-06-30T13:44:24.290Z,52.84
2018-06-30T13:46:54.369Z,54.72
2018-06-30T13:49:24.187Z,52.76
2018-06-30T13:51:53.956Z,51.85
2018-06-30T13:54:23.768Z,52.26
2018-06-30T13:56:53.655Z,52.65
2018-06-30T13:59:23.345Z,51.29
2018-06-30T14:01:53.363Z,50.14
2018-06-30T14:04:23.064Z,49.37
2018-06-30T14:06:53.070Z,49.34
2018-06-30T14:09:22.841Z,49.57
2018-06-30T14:11:52.593Z,51.68
2018-06-30T14:14:22.682Z,49.52
2018-06-30T14:16:52.445Z,51.78
2018-06-30T14:19:22.293Z,51.98
2018-06-30T14:21:52.153Z,51.12
2018-06-30T14:24:21.913Z,50.20
2018-06-30T14:26:51.908Z,50.21
2018-06-30T14:29:21.885Z,50.02
2018-06-30T14:31:51.941Z,52.63
2018-06-30T14:34:21.740Z,54.07
2018-06-30T14:36:51.523Z,54.38
2018-06-30T14:39:21.236Z,54.64
2018-06-30T14:41:51.069Z,52.94
2018-06-30T14:44:27.187Z,51.74
2018-06-30T14:46:57.293Z,48.35
2018-06-30T14:49:27.012Z,51.76
2018-06-30T14:51:57.722Z,54.02
2018-06-30T14:54:27.609Z,55.04
2018-06-30T14:56:57.555Z,61.27
2018-06-30T14:59:27.327Z,60.75
2018-06-30T15:01:57.196Z,60.93
2018-06-30T15:04:27.055Z,63.05
2018-06-30T15:06:56.939Z,61.83
2018-06-30T15:09:26.724Z,65.26
2018-06-30T15:11:56.529Z,64.43
2018-06-30T15:14:50.325Z,61.33
2018-06-30T15:18:13.912Z,63.58
2018-06-30T15:21:23.729Z,68.30
2018-06-30T15:24:26.008Z,67.43
2018-06-30T15:27:31.669Z,62.01
2018-06-30T15:30:21.630Z,57.69
2018-06-30T15:33:07.502Z,55.08
2018-06-30T15:35:38.687Z,52.51
2018-06-30T15:38:08.872Z,51.94
2018-06-30T15:40:38.783Z,54.87
2018-06-30T15:43:09.371Z,46.58
2018-06-30T15:45:40.001Z,47.73
2018-06-30T15:48:10.211Z,48.23
2018-06-30T15:50:40.023Z,47.54
2018-06-30T15:53:10.769Z,49.18
2018-06-30T15:55:40.769Z,51.33
2018-06-30T15:58:11.557Z,47.38
2018-06-30T16:00:42.284Z,46.32
2018-06-30T16:03:12.589Z,45.73
2018-06-30T16:05:43.582Z,44.49
2018-06-30T16:08:14.430Z,45.37
2018-06-30T16:10:44.702Z,44.27
2018-06-30T16:13:14.850Z,47.66
2018-06-30T16:15:45.721Z,45.41
2018-06-30T16:18:15.542Z,48.79
2018-06-30T16:20:45.897Z,47.51
2018-06-30T16:23:16.201Z,47.66
2018-06-30T16:25:46.523Z,47.87
2018-06-30T16:28:16.620Z,49.41
2018-06-30T16:30:46.731Z,48.22
2018-06-30T16:33:16.783Z,44.55
2018-06-30T16:35:47.633Z,41.60
2018-06-30T16:38:17.916Z,46.40
2018-06-30T16:40:48.150Z,41.44
2018-06-30T16:43:18.284Z,43.79
2018-06-30T16:45:48.504Z,44.00
2018-06-30T16:48:18.892Z,43.65
2018-06-30T16:50:48.811Z,44.32
2018-06-30T16:53:18.561Z,46.97
2018-06-30T16:55:49.245Z,43.95
2018-06-30T16:58:19.529Z,44.44
2018-06-30T17:00:49.704Z,43.63
2018-06-30T17:03:21.208Z,43.54
2018-06-30T17:05:52.947Z,45.98
2018-06-30T17:08:23.099Z,47.57
2018-06-30T17:10:53.496Z,43.94
2018-06-30T17:13:24.536Z,47.49
2018-06-30T17:15:54.697Z,46.23
2018-06-30T17:18:25.720Z,48.12
2018-06-30T17:20:56.456Z,48.61
2018-06-30T17:23:26.621Z,49.38
2018-06-30T17:25:56.860Z,51.75
2018-06-30T17:28:29.332Z,52.71
2018-06-30T17:30:59.315Z,51.99
2018-06-30T17:33:33.734Z,52.53
2018-06-30T17:36:04.376Z,56.40
2018-06-30T17:38:35.125Z,54.14
2018-06-30T17:41:04.952Z,58.08
2018-06-30T17:43:34.858Z,56.79
2018-06-30T17:46:04.713Z,60.40
2018-06-30T17:48:34.752Z,58.33
2018-06-30T17:51:04.565Z,60.55
2018-06-30T17:53:35.079Z,61.38
2018-06-30T17:56:04.698Z,63.62
2018-06-30T17:58:34.575Z,66.03
2018-06-30T18:01:04.284Z,67.00
2018-06-30T18:03:34.129Z,68.87
2018-06-30T18:06:03.804Z,69.13
2018-06-30T18:08:33.584Z,68.15
2018-06-30T18:11:03.323Z,69.78
2018-06-30T18:13:35.815Z,70.38
2018-06-30T18:16:06.451Z,71.16
2018-06-30T18:18:36.243Z,71.33
2018-06-30T18:21:06.566Z,72.88
2018-06-30T18:23:36.324Z,72.78
2018-06-30T18:26:07.003Z,71.25
2018-06-30T18:28:37.726Z,68.68
2018-06-30T18:31:07.624Z,66.75
2018-06-30T18:33:37.812Z,66.51
2018-06-30T18:36:07.483Z,68.28
2018-06-30T18:38:37.524Z,69.09
2018-06-30T18:41:07.797Z,65.38
2018-06-30T18:43:37.584Z,65.01
2018-06-30T18:46:08.147Z,67.19
2018-06-30T18:48:38.136Z,68.06
2018-06-30T18:51:07.904Z,68.93
2018-06-30T18:53:38.277Z,68.11
2018-06-30T18:56:07.957Z,65.78
2018-06-30T18:58:38.038Z,64.12
2018-06-30T19:01:08.757Z,62.44
2018-06-30T19:03:38.532Z,65.28
2018-06-30T19:06:08.617Z,66.76
2018-06-30T19:08:38.857Z,66.21
2018-06-30T19:11:09.817Z,62.87
2018-06-30T19:13:40.337Z,58.46
2018-06-30T19:16:10.737Z,59.36
2018-06-30T19:18:42.664Z,61.11
2018-06-30T19:21:13.153Z,63.76
2018-06-30T19:23:43.079Z,61.97
2018-06-30T19:26:13.358Z,65.78
2018-06-30T19:28:43.570Z,59.55
2018-06-30T19:31:13.678Z,58.98
2018-06-30T19:33:43.685Z,59.16
2018-06-30T19:36:13.398Z,57.86
2018-06-30T19:38:43.239Z,57.59
2018-06-30T19:41:13.257Z,56.02
2018-06-30T19:43:43.121Z,58.67
2018-06-30T19:46:12.866Z,55.92
2018-06-30T19:48:42.638Z,60.36
2018-06-30T19:51:12.338Z,59.98
2018-06-30T19:53:42.138Z,57.98
2018-06-30T19:56:11.820Z,58.95
2018-06-30T19:58:41.741Z,58.90
2018-06-30T20:01:11.397Z,55.51
2018-06-30T20:03:41.358Z,54.98
2018-06-30T20:06:11.006Z,56.20
2018-06-30T20:08:40.939Z,58.25
2018-06-30T20:11:10.705Z,57.39
2018-06-30T20:13:40.438Z,56.43
2018-06-30T20:16:10.259Z,59.29
2018-06-30T20:18:40.104Z,58.03
2018-06-30T20:21:09.753Z,57.85
2018-06-30T20:23:39.590Z,58.31
2018-06-30T20:26:09.259Z,58.72
2018-06-30T20:28:39.029Z,54.45
2018-06-30T20:31:08.645Z,56.04
2018-06-30T20:33:38.418Z,57.83
2018-06-30T20:36:08.250Z,55.87
2018-06-30T20:38:37.941Z,57.59
2018-06-30T20:41:07.809Z,53.30
2018-06-30T20:43:38.903Z,57.89
2018-06-30T20:46:08.684Z,58.21
2018-06-30T20:48:40.285Z,57.51
2018-06-30T20:51:10.119Z,55.30
2018-06-30T20:53:41.760Z,55.90
2018-06-30T20:56:11.496Z,53.65
2018-06-30T20:58:43.178Z,52.81
2018-06-30T21:01:13.873Z,53.01
2018-06-30T21:03:44.661Z,53.78
2018-06-30T21:06:14.360Z,53.67
2018-06-30T21:08:45.124Z,53.86
2018-06-30T21:11:15.027Z,53.93
2018-06-30T21:13:46.704Z,53.63
2018-06-30T21:16:16.393Z,52.78
2018-06-30T21:18:47.968Z,49.94
2018-06-30T21:21:17.739Z,51.03
2018-06-30T21:23:48.330Z,50.70
2018-06-30T21:26:18.203Z,50.62
2018-06-30T21:28:47.978Z,50.19
2018-06-30T21:31:17.832Z,50.79
2018-06-30T21:33:47.466Z,50.40
2018-06-30T21:36:17.247Z,52.55
2018-06-30T21:38:47.005Z,51.48
2018-06-30T21:41:16.839Z,51.93
2018-06-30T21:43:46.535Z,51.76
2018-06-30T21:46:16.303Z,51.66
2018-06-30T21:48:46.033Z,50.53
2018-06-30T21:51:15.882Z,51.13
2018-06-30T21:53:45.605Z,50.50
2018-06-30T21:56:15.630Z,53.39
2018-06-30T21:58:45.410Z,53.00
2018-06-30T22:01:19.967Z,51.96
2018-06-30T22:03:49.763Z,54.99
2018-06-30T22:06:19.484Z,54.99
2018-06-30T22:08:49.124Z,53.04
2018-06-30T22:11:18.902Z,52.47
2018-06-30T22:13:48.764Z,54.08
2018-06-30T22:16:18.685Z,52.88
2018-06-30T22:18:48.450Z,53.32
2018-06-30T22:21:18.322Z,55.67
2018-06-30T22:23:47.951Z,56.29
2018-06-30T22:26:17.640Z,56.86
2018-06-30T22:28:47.463Z,57.69
2018-06-30T22:31:17.403Z,56.31
2018-06-30T22:33:47.027Z,56.96
2018-06-30T22:36:16.809Z,57.56
2018-06-30T22:38:46.524Z,56.29
2018-06-30T22:41:16.412Z,58.02
2018-06-30T22:43:45.980Z,55.85
2018-06-30T22:46:15.748Z,56.29
2018-06-30T22:48:45.342Z,57.38
2018-06-30T22:51:15.150Z,57.36
2018-06-30T22:53:44.931Z,52.29
2018-06-30T22:56:14.679Z,56.63
2018-06-30T22:58:44.469Z,60.98
2018-06-30T23:01:14.285Z,55.70
2018-06-30T23:03:43.959Z,56.52
2018-06-30T23:06:13.734Z,59.66
2018-06-30T23:08:48.262Z,60.55
2018-06-30T23:11:18.288Z,58.82
2018-06-30T23:13:48.130Z,60.21
2018-06-30T23:16:17.885Z,64.14
2018-06-30T23:18:48.587Z,63.89
2018-06-30T23:21:18.383Z,64.12
2018-06-30T23:23:48.115Z,64.92
2018-06-30T23:26:17.936Z,66.32
2018-06-30T23:28:47.743Z,66.74
2018-06-30T23:31:17.499Z,68.67
2018-06-30T23:33:47.151Z,67.72
2018-06-30T23:36:16.909Z,67.08
2018-06-30T23:38:46.560Z,67.21
2018-06-30T23:41:16.447Z,67.24
2018-06-30T23:43:46.045Z,66.21
2018-06-30T23:46:15.880Z,65.30
2018-06-30T23:48:45.696Z,66.57
2018-06-30T23:51:15.496Z,65.04
2018-06-30T23:53:45.058Z,65.35
2018-06-30T23:56:14.758Z,66.59
2018-06-30T23:58:44.435Z,67.68
